createdAt,value
2022-11-07T00:00:30.294Z,99656.39
2022-11-07T00:01:30.284Z,99662.62
2022-11-07T00:02:30.345Z,99660.7
2022-11-07T00:03:30.282Z,99661.12
2022-11-07T00:04:30.989Z,99661.25
2022-11-07T00:05:30.285Z,99658.33
2022-11-07T00:06:30.344Z,99661.89
2022-11-07T00:07:30.351Z,99659.12
2022-11-07T00:08:30.572Z,99654.98
2022-11-07T00:09:30.402Z,99657.77
2022-11-07T00:10:30.367Z,99661.66
2022-11-07T00:11:30.603Z,99671.57
2022-11-07T00:12:30.408Z,99670.42
2022-11-07T00:13:30.473Z,99675.96
2022-11-07T00:14:30.438Z,99676.69
2022-11-07T00:15:30.631Z,99672.01
2022-11-07T00:16:31.457Z,99671.8
2022-11-07T00:17:30.514Z,99669.59
2022-11-07T00:18:30.923Z,99670.33
2022-11-07T00:19:30.490Z,99662.29
2022-11-07T00:20:30.639Z,99660.73
2022-11-07T00:21:30.492Z,99660.47
2022-11-07T00:22:30.513Z,99663.65
2022-11-07T00:23:31.050Z,99666.52
2022-11-07T00:24:30.567Z,99661.44
2022-11-07T00:25:30.561Z,99657.39
2022-11-07T00:26:30.581Z,99656.2
2022-11-07T00:27:30.618Z,99656.12
2022-11-07T00:28:34.464Z,99659.41
2022-11-07T00:29:30.693Z,99658.34
2022-11-07T00:30:30.828Z,99660.5
2022-11-07T00:31:31.350Z,99658.52
2022-11-07T00:32:30.742Z,99657.48
2022-11-07T00:33:30.935Z,99657.91
2022-11-07T00:34:32.376Z,99657.76
2022-11-07T00:35:30.771Z,99660.16
2022-11-07T00:36:30.767Z,99660.19
2022-11-07T00:37:30.767Z,99660.22
2022-11-07T00:38:30.829Z,99660.68
2022-11-07T00:39:30.833Z,99660.88
2022-11-07T00:40:31.261Z,99663.09
2022-11-07T00:41:31.199Z,99664.14
2022-11-07T00:42:30.852Z,99658.7
2022-11-07T00:43:31.391Z,99658.48
2022-11-07T00:44:30.898Z,99660.85
2022-11-07T00:45:30.942Z,99662.88
2022-11-07T00:46:30.918Z,99663.7
2022-11-07T00:47:30.937Z,99658.37
2022-11-07T00:48:31.356Z,99665.95
2022-11-07T00:49:30.963Z,99664.47
2022-11-07T00:50:30.979Z,99664.22
2022-11-07T00:51:31.025Z,99662.81
2022-11-07T00:52:31.176Z,99666.19
2022-11-07T00:53:31.021Z,99665.48
2022-11-07T00:54:31.006Z,99667.44
2022-11-07T00:55:31.862Z,99666.08
2022-11-07T00:56:31.369Z,99662.98
2022-11-07T00:57:31.036Z,99661.03
2022-11-07T00:58:31.067Z,99662.41
2022-11-07T00:59:31.061Z,99664.42
2022-11-07T01:00:31.266Z,99660.73
2022-11-07T01:01:32.965Z,99663.45
2022-11-07T01:02:31.291Z,99662.23
2022-11-07T01:03:31.100Z,99660.22
2022-11-07T01:04:31.410Z,99658.16
2022-11-07T01:05:31.125Z,99659.25
2022-11-07T01:06:32.734Z,99658.23
2022-11-07T01:07:32.928Z,99654.02
2022-11-07T01:08:31.398Z,99662.53
2022-11-07T01:09:31.225Z,99659.06
2022-11-07T01:10:31.214Z,99655.57
2022-11-07T01:11:31.240Z,99646.39
2022-11-07T01:12:33.070Z,99647.67
2022-11-07T01:13:31.253Z,99647.45
2022-11-07T01:14:31.643Z,99648.39
2022-11-07T01:15:31.287Z,99650.25
2022-11-07T01:16:31.577Z,99649.64
2022-11-07T01:17:31.288Z,99649.16
2022-11-07T01:18:31.329Z,99653.55
2022-11-07T01:19:31.328Z,99646.88
2022-11-07T01:20:31.331Z,99643.41
2022-11-07T01:21:31.353Z,99640.93
2022-11-07T01:22:31.370Z,99639.23
2022-11-07T01:23:31.407Z,99636.7
2022-11-07T01:24:31.388Z,99637.83
2022-11-07T01:25:31.391Z,99635.86
2022-11-07T01:26:31.417Z,99632.77
2022-11-07T01:27:31.635Z,99636.56
2022-11-07T01:28:31.665Z,99638.31
2022-11-07T01:29:31.446Z,99637.95
2022-11-07T01:30:31.459Z,99640.64
2022-11-07T01:31:31.483Z,99634.42
2022-11-07T01:32:31.514Z,99637.97
2022-11-07T01:33:31.884Z,99637.49
2022-11-07T01:34:31.506Z,99635.06
2022-11-07T01:35:32.313Z,99633.38
2022-11-07T01:36:31.914Z,99631.36
2022-11-07T01:37:31.547Z,99625.8
2022-11-07T01:38:31.560Z,99628.05
2022-11-07T01:39:31.834Z,99626.42
2022-11-07T01:40:31.607Z,99620.91
2022-11-07T01:41:33.768Z,99621.62
2022-11-07T01:42:31.628Z,99617.61
2022-11-07T01:45:38.568Z,99621.95
2022-11-07T01:46:42.312Z,99619.78
2022-11-07T01:47:38.976Z,99625.97
2022-11-07T01:48:40.824Z,99625.67
2022-11-07T01:49:40.476Z,99624.27
2022-11-07T01:50:39.215Z,99624.28
2022-11-07T01:51:49.819Z,99623.25
2022-11-07T01:52:44.086Z,99622.28
2022-11-07T01:53:41.953Z,99621.77
2022-11-07T01:54:44.297Z,99616
2022-11-07T01:55:41.581Z,99619.34
2022-11-07T01:56:42.720Z,99612.54
2022-11-07T01:57:54.597Z,99613.98
2022-11-07T01:58:46.983Z,99611.69
2022-11-07T01:59:46.503Z,99610.73
2022-11-07T02:00:46.354Z,99611.14
2022-11-07T02:01:46.386Z,99607.86
2022-11-07T02:02:48.203Z,99604.81
2022-11-07T02:03:46.761Z,99613.7
2022-11-07T02:04:46.641Z,99606.27
2022-11-07T02:05:50.545Z,99612.62
2022-11-07T02:06:49.625Z,99606.91
2022-11-07T02:07:47.384Z,99607.41
2022-11-07T02:08:48.487Z,99609.01
2022-11-07T02:09:47.621Z,99606.09
2022-11-07T02:10:47.749Z,99608.45
2022-11-07T02:11:47.430Z,99610.94
2022-11-07T02:12:47.712Z,99611.34
2022-11-07T02:13:47.310Z,99611.98
2022-11-07T02:14:47.307Z,99612.3
2022-11-07T02:15:47.299Z,99611.27
2022-11-07T02:16:47.376Z,99612.27
2022-11-07T02:17:47.948Z,99605.87
2022-11-07T02:18:47.542Z,99605.11
2022-11-07T02:19:51.520Z,99603.5
2022-11-07T02:20:48.583Z,99601.92
2022-11-07T02:21:52.350Z,99603.14
2022-11-07T02:22:53.745Z,99597.86
2022-11-07T02:24:52.593Z,99596.47
2022-11-07T02:25:50.383Z,99595.97
2022-11-07T02:26:51.375Z,99595.55
2022-11-07T02:27:52.761Z,99587.2
2022-11-07T02:28:52.000Z,99589.4
2022-11-07T02:29:53.330Z,99588.72
2022-11-07T02:30:50.377Z,99584.05
2022-11-07T02:32:00.014Z,99587.02
2022-11-07T02:32:51.417Z,99585.7
2022-11-07T02:33:51.286Z,99582.45
2022-11-07T02:34:58.687Z,99584.92
2022-11-07T02:35:55.008Z,99576.31
2022-11-07T02:36:54.993Z,99580.4
2022-11-07T02:37:55.360Z,99574.6
2022-11-07T02:38:57.105Z,99577.62
2022-11-07T02:39:54.983Z,99579.98
2022-11-07T02:40:56.761Z,99578.57
2022-11-07T02:41:56.535Z,99578.66
2022-11-07T02:42:55.183Z,99583.45
2022-11-07T02:43:58.073Z,99583.24
2022-11-07T02:44:55.530Z,99583.12
2022-11-07T02:45:57.545Z,99585.55
2022-11-07T02:46:55.352Z,99590.19
2022-11-07T02:47:55.308Z,99591.59
2022-11-07T02:48:56.896Z,99595.38
2022-11-07T02:49:55.125Z,99593.84
2022-11-07T02:50:55.122Z,99599.02
2022-11-07T02:51:55.341Z,99595.59
2022-11-07T02:52:55.111Z,99596.7
2022-11-07T02:53:55.355Z,99593.11
2022-11-07T02:54:55.198Z,99593.46
2022-11-07T02:55:55.168Z,99596.8
2022-11-07T02:56:55.157Z,99601.83
2022-11-07T02:57:55.367Z,99598.79
2022-11-07T02:58:55.580Z,99603.65
2022-11-07T02:59:55.212Z,99594.33
2022-11-07T03:00:55.272Z,99590.91
2022-11-07T03:01:55.356Z,99590.61
2022-11-07T03:02:55.383Z,99584.34
2022-11-07T03:03:55.285Z,99582
2022-11-07T03:04:55.577Z,99576.84
2022-11-07T03:05:55.502Z,99576.56
2022-11-07T03:06:55.298Z,99578.73
2022-11-07T03:07:55.333Z,99574.45
2022-11-07T03:08:55.334Z,99574.14
2022-11-07T03:09:55.338Z,99573.25
2022-11-07T03:10:55.367Z,99572.65
2022-11-07T03:11:55.402Z,99572.38
2022-11-07T03:12:55.365Z,99579.41
2022-11-07T03:13:55.378Z,99576.06
2022-11-07T03:14:55.414Z,99579.27
2022-11-07T03:15:55.429Z,99572.81
2022-11-07T03:16:55.466Z,99570.38
2022-11-07T03:17:57.870Z,99570.27
2022-11-07T03:18:55.431Z,99572.66
2022-11-07T03:19:55.482Z,99567.59
2022-11-07T03:20:55.480Z,99573.51
2022-11-07T03:21:55.510Z,99567.84
2022-11-07T03:22:55.551Z,99566.45
2022-11-07T03:23:55.514Z,99577.92
2022-11-07T03:24:55.681Z,99578.46
2022-11-07T03:25:55.549Z,99578.89
2022-11-07T03:26:55.576Z,99576.59
2022-11-07T03:27:55.566Z,99580.77
2022-11-07T03:28:55.573Z,99581.25
2022-11-07T03:29:55.593Z,99577.25
2022-11-07T03:30:59.277Z,99579.83
2022-11-07T03:31:55.680Z,99578.22
2022-11-07T03:32:56.863Z,99576.93
2022-11-07T03:33:55.628Z,99568.93
2022-11-07T03:34:55.669Z,99571.7
2022-11-07T03:35:55.697Z,99566.3
2022-11-07T03:36:55.699Z,99570.48
2022-11-07T03:37:55.732Z,99554.95
2022-11-07T03:38:55.734Z,99565.64
2022-11-07T03:39:55.748Z,99565.7
2022-11-07T03:40:55.730Z,99565.95
2022-11-07T03:41:55.748Z,99567.35
2022-11-07T03:42:55.811Z,99563.64
2022-11-07T03:43:55.756Z,99567.95
2022-11-07T03:44:55.770Z,99567.48
2022-11-07T03:45:55.800Z,99567.42
2022-11-07T03:46:55.798Z,99572.02
2022-11-07T03:47:55.850Z,99569.69
2022-11-07T03:48:55.834Z,99572.72
2022-11-07T03:49:55.824Z,99568.3
2022-11-07T03:50:55.844Z,99568.91
2022-11-07T03:51:55.907Z,99566.84
2022-11-07T03:52:55.966Z,99565.06
2022-11-07T03:53:55.878Z,99566.08
2022-11-07T03:54:55.911Z,99567.09
2022-11-07T03:55:56.190Z,99570.41
2022-11-07T03:56:55.935Z,99569.27
2022-11-07T03:57:56.002Z,99568.53
2022-11-07T03:58:55.976Z,99562.78
2022-11-07T03:59:55.980Z,99567.33
2022-11-07T04:00:55.957Z,99570.71
2022-11-07T04:01:56.196Z,99568.05
2022-11-07T04:02:56.218Z,99570.22
2022-11-07T04:03:56.440Z,99566.41
2022-11-07T04:04:56.105Z,99567.55
2022-11-07T04:05:56.040Z,99561.16
2022-11-07T04:06:56.058Z,99564.27
2022-11-07T04:07:56.106Z,99564.59
2022-11-07T04:08:56.105Z,99563.08
2022-11-07T04:09:56.091Z,99562.43
2022-11-07T04:10:56.097Z,99560.53
2022-11-07T04:11:56.094Z,99559.34
2022-11-07T04:12:56.321Z,99556.84
2022-11-07T04:13:56.133Z,99556.48
2022-11-07T04:14:56.137Z,99553.22
2022-11-07T04:15:56.200Z,99559.62
2022-11-07T04:16:56.147Z,99552.52
2022-11-07T04:17:56.200Z,99552.2
2022-11-07T04:18:56.952Z,99550.92
2022-11-07T04:19:56.671Z,99553.7
2022-11-07T04:20:56.245Z,99551.17
2022-11-07T04:21:56.226Z,99551.2
2022-11-07T04:22:56.244Z,99553.05
2022-11-07T04:23:56.260Z,99552.95
2022-11-07T04:24:56.300Z,99558.55
2022-11-07T04:25:56.292Z,99557.78
2022-11-07T04:26:56.313Z,99551.91
2022-11-07T04:27:56.318Z,99555.87
2022-11-07T04:28:56.331Z,99549.53
2022-11-07T04:29:56.382Z,99544.83
2022-11-07T04:30:56.361Z,99538.79
2022-11-07T04:31:56.390Z,99543.27
2022-11-07T04:32:57.814Z,99536.61
2022-11-07T04:33:56.630Z,99536.83
2022-11-07T04:34:56.444Z,99541.64
2022-11-07T04:35:56.646Z,99542.78
2022-11-07T04:36:56.461Z,99544.47
2022-11-07T04:37:56.705Z,99546.83
2022-11-07T04:38:56.489Z,99546.66
2022-11-07T04:39:56.503Z,99540.08
2022-11-07T04:40:57.354Z,99540.61
2022-11-07T04:41:56.523Z,99543.86
2022-11-07T04:42:56.891Z,99543.92
2022-11-07T04:43:56.559Z,99542.45
2022-11-07T04:44:56.575Z,99540.72
2022-11-07T04:45:56.587Z,99543.12
2022-11-07T04:46:56.635Z,99542.38
2022-11-07T04:47:56.598Z,99542.43
2022-11-07T04:48:56.627Z,99538.98
2022-11-07T04:49:56.634Z,99543.52
2022-11-07T04:50:56.665Z,99535.36
2022-11-07T04:51:56.875Z,99541.72
2022-11-07T04:52:56.879Z,99537.58
2022-11-07T04:53:56.695Z,99540.06
2022-11-07T04:54:56.704Z,99537.52
2022-11-07T04:55:56.727Z,99538.14
2022-11-07T04:56:56.814Z,99544.34
2022-11-07T04:57:57.313Z,99544.78
2022-11-07T04:58:56.775Z,99543.98
2022-11-07T04:59:56.783Z,99544.46
2022-11-07T05:00:56.815Z,99544.2
2022-11-07T05:01:57.077Z,99537.77
2022-11-07T05:02:56.924Z,99540.12
2022-11-07T05:03:56.831Z,99536.64
2022-11-07T05:04:56.907Z,99539.44
2022-11-07T05:05:57.173Z,99539.4
2022-11-07T05:06:56.960Z,99536.52
2022-11-07T05:07:56.902Z,99532.99
2022-11-07T05:08:56.932Z,99537.28
2022-11-07T05:09:56.920Z,99539.5
2022-11-07T05:10:56.960Z,99542.31
2022-11-07T05:11:57.231Z,99539.84
2022-11-07T05:12:57.197Z,99545.55
2022-11-07T05:13:57.013Z,99538.73
2022-11-07T05:14:57.012Z,99538.39
2022-11-07T05:15:57.505Z,99539.88
2022-11-07T05:16:57.464Z,99535.95
2022-11-07T05:17:57.056Z,99531.83
2022-11-07T05:18:57.070Z,99534.66
2022-11-07T05:19:57.083Z,99531.73
2022-11-07T05:20:57.130Z,99524.06
2022-11-07T05:21:57.138Z,99530
2022-11-07T05:22:57.397Z,99528.22
2022-11-07T05:23:57.173Z,99524.88
2022-11-07T05:24:57.591Z,99528.48
2022-11-07T05:25:57.201Z,99527.66
2022-11-07T05:26:57.200Z,99528.73
2022-11-07T05:27:57.281Z,99525.83
2022-11-07T05:28:57.381Z,99525.56
2022-11-07T05:29:57.317Z,99526.95
2022-11-07T05:31:01.423Z,99520.51
2022-11-07T05:31:57.652Z,99523.14
2022-11-07T05:32:57.651Z,99527.27
2022-11-07T05:33:57.684Z,99520.77
2022-11-07T05:34:57.667Z,99518.59
2022-11-07T05:35:57.715Z,99520.52
2022-11-07T05:36:57.704Z,99523.97
2022-11-07T05:37:57.720Z,99521.97
2022-11-07T05:38:57.924Z,99523.55
2022-11-07T05:39:57.762Z,99526.73
2022-11-07T05:41:02.092Z,99521.83
2022-11-07T05:41:59.747Z,99530.61
2022-11-07T05:42:59.213Z,99527.44
2022-11-07T05:43:58.557Z,99527.96
2022-11-07T05:44:58.548Z,99527.46
2022-11-07T05:45:59.576Z,99518.9
2022-11-07T05:46:59.090Z,99527.5
2022-11-07T05:48:04.894Z,99525.31
2022-11-07T05:49:01.472Z,99521.72
2022-11-07T05:50:01.165Z,99520.53
2022-11-07T05:51:01.361Z,99520.27
2022-11-07T05:52:01.162Z,99510.8
2022-11-07T05:53:01.750Z,99520.53
2022-11-07T05:54:01.220Z,99514.91
2022-11-07T05:55:01.228Z,99513.16
2022-11-07T05:56:01.270Z,99510.58
2022-11-07T05:57:01.254Z,99516.52
2022-11-07T05:58:07.234Z,99518.38
2022-11-07T05:59:04.420Z,99515.93
2022-11-07T06:00:04.206Z,99524.11
2022-11-07T06:01:04.500Z,99516.66
2022-11-07T06:02:03.800Z,99516.42
2022-11-07T06:03:03.876Z,99518.31
2022-11-07T06:04:04.310Z,99519.45
2022-11-07T06:05:04.719Z,99519.98
2022-11-07T06:06:03.911Z,99519.91
2022-11-07T06:07:03.789Z,99505.31
2022-11-07T06:08:03.873Z,99514.59
2022-11-07T06:09:03.820Z,99519.79
2022-11-07T06:10:05.014Z,99522.43
2022-11-07T06:11:04.293Z,99528.09
2022-11-07T06:12:04.269Z,99523.27
2022-11-07T06:13:05.076Z,99528.64
2022-11-07T06:14:03.904Z,99523.44
2022-11-07T06:15:04.432Z,99521.77
2022-11-07T06:16:04.511Z,99521.73
2022-11-07T06:17:04.161Z,99524.62
2022-11-07T06:18:05.421Z,99521.49
2022-11-07T06:19:03.984Z,99518.62
2022-11-07T06:20:04.761Z,99524.03
2022-11-07T06:21:04.539Z,99515.92
2022-11-07T06:22:04.280Z,99521.88
2022-11-07T06:23:04.962Z,99519.94
2022-11-07T06:24:04.653Z,99517.77
2022-11-07T06:25:04.462Z,99516.58
2022-11-07T06:26:04.511Z,99513.72
2022-11-07T06:27:04.580Z,99511.22
2022-11-07T06:28:05.805Z,99509.31
2022-11-07T06:29:04.606Z,99516.95
2022-11-07T06:30:05.288Z,99522.9
2022-11-07T06:31:05.240Z,99513.08
2022-11-07T06:32:05.314Z,99519.33
2022-11-07T06:33:06.333Z,99512.25
2022-11-07T06:34:04.711Z,99520.79
2022-11-07T06:35:05.226Z,99517.43
2022-11-07T06:36:09.458Z,99516.77
2022-11-07T06:37:05.693Z,99512.88
2022-11-07T06:38:07.379Z,99518.77
2022-11-07T06:39:05.707Z,99523.47
2022-11-07T06:40:06.509Z,99522.81
2022-11-07T06:41:06.912Z,99524.37
2022-11-07T06:42:05.793Z,99522.33
2022-11-07T06:43:10.213Z,99522.86
2022-11-07T06:44:06.468Z,99524.8
2022-11-07T06:45:07.283Z,99524.11
2022-11-07T06:46:08.597Z,99524.48
2022-11-07T06:47:06.526Z,99525.22
2022-11-07T06:48:06.794Z,99522.61
2022-11-07T06:49:06.816Z,99516.59
2022-11-07T06:50:07.195Z,99525.7
2022-11-07T06:51:07.626Z,99524.91
2022-11-07T06:52:06.606Z,99519.83
2022-11-07T06:53:08.443Z,99523.77
2022-11-07T06:54:07.055Z,99524.06
2022-11-07T06:55:07.117Z,99532.54
2022-11-07T06:56:07.417Z,99533.44
2022-11-07T06:57:06.662Z,99529.17
2022-11-07T06:58:07.227Z,99521.56
2022-11-07T06:59:06.692Z,99532.08
2022-11-07T07:00:07.323Z,99529
2022-11-07T07:01:07.766Z,99531.17
2022-11-07T07:02:06.861Z,99525.36
2022-11-07T07:03:06.891Z,99522.36
2022-11-07T07:04:09.045Z,99525.59
2022-11-07T07:05:07.484Z,99523.61
2022-11-07T07:06:07.928Z,99518.02
2022-11-07T07:07:07.092Z,99517.7
2022-11-07T07:08:07.415Z,99525.16
2022-11-07T07:09:06.830Z,99522.92
2022-11-07T07:10:07.692Z,99521.81
2022-11-07T07:11:08.287Z,99523.3
2022-11-07T07:12:07.277Z,99522.17
2022-11-07T07:13:06.898Z,99527.32
2022-11-07T07:14:11.409Z,99524
2022-11-07T07:15:08.567Z,99526.84
2022-11-07T07:16:08.694Z,99522.57
2022-11-07T07:17:08.076Z,99526.52
2022-11-07T07:18:08.111Z,99526.17
2022-11-07T07:19:08.166Z,99529.57
2022-11-07T07:20:08.647Z,99529.7
2022-11-07T07:21:09.055Z,99531.48
2022-11-07T07:22:11.907Z,99533.69
2022-11-07T07:23:08.184Z,99534.07
2022-11-07T07:24:08.700Z,99535.14
2022-11-07T07:25:08.868Z,99531.42
2022-11-07T07:26:11.539Z,99533.37
2022-11-07T07:27:08.264Z,99528.09
2022-11-07T07:28:08.303Z,99530.41
2022-11-07T07:29:08.284Z,99535.05
2022-11-07T07:30:09.143Z,99534.39
2022-11-07T07:32:10.413Z,99528.18
2022-11-07T07:33:10.449Z,99531.89
2022-11-07T07:34:10.463Z,99531.17
2022-11-07T07:35:10.532Z,99537.01
2022-11-07T07:36:10.893Z,99532.3
2022-11-07T07:37:10.532Z,99527.26
2022-11-07T07:38:11.290Z,99524.91
2022-11-07T07:39:10.556Z,99530.01
2022-11-07T07:40:11.279Z,99526.45
2022-11-07T07:41:10.701Z,99527.23
2022-11-07T07:42:10.644Z,99526.14
2022-11-07T07:43:10.644Z,99527.62
2022-11-07T07:44:10.602Z,99528.51
2022-11-07T07:45:11.906Z,99525.02
2022-11-07T07:46:13.933Z,99522.78
2022-11-07T07:47:11.622Z,99529.66
2022-11-07T07:48:10.709Z,99525.12
2022-11-07T07:49:10.970Z,99519.88
2022-11-07T07:50:11.725Z,99522
2022-11-07T07:51:10.762Z,99523.73
2022-11-07T07:52:10.755Z,99518.12
2022-11-07T07:53:10.768Z,99512.61
2022-11-07T07:54:11.186Z,99508.73
2022-11-07T07:55:10.828Z,99510.38
2022-11-07T07:56:10.875Z,99515.74
2022-11-07T07:57:10.840Z,99515.36
2022-11-07T07:58:11.119Z,99512.59
2022-11-07T07:59:10.898Z,99508.77
2022-11-07T08:00:11.614Z,99511.16
2022-11-07T08:01:10.975Z,99517.8
2022-11-07T08:02:11.837Z,99508.89
2022-11-07T08:03:11.757Z,99507.77
2022-11-07T08:04:10.938Z,99511.64
2022-11-07T08:05:12.498Z,99510.7
2022-11-07T08:06:11.230Z,99511.62
2022-11-07T08:07:11.023Z,99512.48
2022-11-07T08:08:11.020Z,99504.88
2022-11-07T08:09:11.059Z,99504.2
2022-11-07T08:10:39.701Z,99496.66
2022-11-07T08:11:12.402Z,99503.55
2022-11-07T08:12:12.217Z,99509.06
2022-11-07T08:13:12.459Z,99503.73
2022-11-07T08:14:12.249Z,99502.02
2022-11-07T08:15:13.169Z,99499.86
2022-11-07T08:16:12.334Z,99503.17
2022-11-07T08:17:12.310Z,99505.95
2022-11-07T08:18:12.325Z,99506.06
2022-11-07T08:19:12.707Z,99503.48
2022-11-07T08:20:14.031Z,99503.51
2022-11-07T08:21:12.382Z,99506.96
2022-11-07T08:22:12.377Z,99506.52
2022-11-07T08:23:16.541Z,99503.59
2022-11-07T08:24:13.557Z,99501.72
2022-11-07T08:25:13.544Z,99487.84
2022-11-07T08:26:13.366Z,99494.88
2022-11-07T08:27:13.373Z,99496.45
2022-11-07T08:28:13.391Z,99499.66
2022-11-07T08:29:13.416Z,99504.91
2022-11-07T08:30:17.949Z,99498.55
2022-11-07T08:31:14.650Z,99493.16
2022-11-07T08:32:15.002Z,99497.03
2022-11-07T08:33:14.876Z,99490.34
2022-11-07T08:34:14.690Z,99491.4
2022-11-07T08:35:15.030Z,99494.73
2022-11-07T08:36:14.702Z,99495.23
2022-11-07T08:37:14.755Z,99494.66
2022-11-07T08:38:14.714Z,99492.44
2022-11-07T08:39:14.732Z,99491.86
2022-11-07T08:40:14.739Z,99496.1
2022-11-07T08:41:19.585Z,99497.58
2022-11-07T08:42:18.167Z,99494.63
2022-11-07T08:43:19.013Z,99496.09
2022-11-07T08:44:18.141Z,99496.73
2022-11-07T08:45:18.140Z,99492.48
2022-11-07T08:46:18.197Z,99488.56
2022-11-07T08:47:18.185Z,99487.2
2022-11-07T08:48:18.455Z,99488.48
2022-11-07T08:49:18.215Z,99492.96
2022-11-07T08:50:18.217Z,99485.52
2022-11-07T08:51:18.266Z,99483.35
2022-11-07T08:52:18.313Z,99479.34
2022-11-07T08:53:18.666Z,99484.08
2022-11-07T08:54:18.335Z,99476.32
2022-11-07T08:55:18.325Z,99475.45
2022-11-07T08:56:18.339Z,99478.16
2022-11-07T08:57:18.409Z,99482.2
2022-11-07T08:58:18.804Z,99477.74
2022-11-07T08:59:18.761Z,99485.94
2022-11-07T09:00:18.824Z,99483.63
2022-11-07T09:01:18.501Z,99491.7
2022-11-07T09:04:21.250Z,99488.21
2022-11-07T09:05:21.663Z,99488.77
2022-11-07T09:06:21.196Z,99487.73
2022-11-07T09:07:20.838Z,99483.45
2022-11-07T09:08:21.000Z,99479.62
2022-11-07T09:09:20.828Z,99488.62
2022-11-07T09:10:20.924Z,99484.73
2022-11-07T09:11:21.336Z,99481.48
2022-11-07T09:12:21.138Z,99482.2
2022-11-07T09:13:21.055Z,99481.64
2022-11-07T09:14:20.977Z,99481.15
2022-11-07T09:15:21.631Z,99478.28
2022-11-07T09:16:21.782Z,99477.86
2022-11-07T09:17:20.993Z,99481.97
2022-11-07T09:18:20.987Z,99480.12
2022-11-07T09:19:21.019Z,99466.59
2022-11-07T09:20:21.234Z,99481.94
2022-11-07T09:21:22.829Z,99483.55
2022-11-07T09:22:21.439Z,99479.89
2022-11-07T09:23:21.121Z,99481.38
2022-11-07T09:24:21.597Z,99480.72
2022-11-07T09:25:21.619Z,99479.53
2022-11-07T09:26:21.700Z,99475.12
2022-11-07T09:27:21.663Z,99472
2022-11-07T09:28:21.670Z,99470.66
2022-11-07T09:29:22.186Z,99469.46
2022-11-07T09:30:21.869Z,99466.86
2022-11-07T09:31:22.159Z,99462.48
2022-11-07T09:32:43.254Z,99467.15
2022-11-07T09:33:23.532Z,99464.48
2022-11-07T09:34:22.917Z,99468.41
2022-11-07T09:35:22.914Z,99464.36
2022-11-07T09:36:22.970Z,99466.38
2022-11-07T09:37:23.145Z,99461.62
2022-11-07T09:38:23.048Z,99459.58
2022-11-07T09:39:22.980Z,99461.93
2022-11-07T09:45:42.749Z,99443.43
2022-11-07T09:47:50.746Z,99447.48
2022-11-07T09:48:50.379Z,99443.89
2022-11-07T09:49:51.597Z,99445.3
2022-11-07T09:50:48.439Z,99445.55
2022-11-07T09:51:59.338Z,99443.33
2022-11-07T09:52:58.577Z,99448.02
2022-11-07T09:54:00.053Z,99450.8
2022-11-07T09:55:01.976Z,99434.97
2022-11-07T09:55:59.622Z,99441.8
2022-11-07T09:56:59.145Z,99443.3
2022-11-07T09:58:01.311Z,99444.81
2022-11-07T09:59:00.474Z,99445.82
2022-11-07T10:00:00.325Z,99443.42
2022-11-07T10:01:00.743Z,99444.73
2022-11-07T10:01:58.764Z,99444.84
2022-11-07T10:02:59.989Z,99447.66
2022-11-07T10:04:23.460Z,99442.35
2022-11-07T10:05:02.144Z,99439.65
2022-11-07T10:07:05.128Z,99441.31
2022-11-07T10:22:41.736Z,99436.98
2022-11-07T10:26:44.535Z,99437.88
2022-11-07T10:27:46.732Z,99438.05
2022-11-07T10:28:45.109Z,99435.73
2022-11-07T10:29:45.419Z,99438.18
2022-11-07T10:30:46.174Z,99437.02
2022-11-07T10:31:46.901Z,99440.44
2022-11-07T10:36:00.014Z,99440.77
2022-11-07T10:36:56.314Z,99432.91
2022-11-07T10:37:57.559Z,99432.59
2022-11-07T10:38:56.949Z,99432.39
2022-11-07T10:39:56.344Z,99440.58
2022-11-07T10:40:56.490Z,99435.46
2022-11-07T10:42:02.633Z,99428.95
2022-11-07T10:43:00.145Z,99423.23
2022-11-07T10:45:03.571Z,99422.83
2022-11-07T10:46:03.642Z,99421.06
2022-11-07T10:47:02.265Z,99415.66
2022-11-07T10:48:03.630Z,99418.95
2022-11-07T10:49:03.564Z,99415.86
2022-11-07T10:51:03.680Z,99418.05
2022-11-07T10:52:07.514Z,99415.12
2022-11-07T10:53:05.226Z,99414.02
2022-11-07T10:54:05.067Z,99413.16
2022-11-07T10:55:05.800Z,99413.27
2022-11-07T10:56:09.580Z,99408.73
2022-11-07T10:57:11.444Z,99407.2
2022-11-07T10:58:08.171Z,99408.61
2022-11-07T10:59:11.974Z,99408.78
2022-11-07T11:01:12.459Z,99405.7
2022-11-07T11:02:25.358Z,99407.2
2022-11-07T11:03:28.986Z,99407.66
2022-11-07T11:06:29.704Z,99409.31
2022-11-07T11:07:32.583Z,99411.45
2022-11-07T11:08:28.797Z,99407.61
2022-11-07T11:09:30.020Z,99414.45
2022-11-07T11:10:29.639Z,99405.98
2022-11-07T11:11:33.325Z,99406.7
2022-11-07T11:12:34.769Z,99403.1
2022-11-07T11:13:32.820Z,99405.97
2022-11-07T11:14:31.777Z,99403.98
2022-11-07T11:15:35.744Z,99406.98
2022-11-07T11:16:34.991Z,99405.71
2022-11-07T11:17:32.341Z,99407.81
2022-11-07T11:18:32.688Z,99403.36
2022-11-07T11:20:37.571Z,99400.78
2022-11-07T11:21:45.147Z,99403.02
2022-11-07T11:22:41.510Z,99400.39
2022-11-07T11:23:41.980Z,99400.45
2022-11-07T11:24:38.688Z,99398.78
2022-11-07T11:25:45.296Z,99393.54
2022-11-07T11:26:43.461Z,99391.38
2022-11-07T11:27:42.763Z,99394.72
2022-11-07T11:28:47.096Z,99389.81
2022-11-07T11:30:50.909Z,99387.88
2022-11-07T11:31:50.600Z,99377.1
2022-11-07T11:32:52.618Z,99389.78
2022-11-07T11:33:54.532Z,99383.84
2022-11-07T11:34:54.694Z,99384.57
2022-11-07T11:35:57.046Z,99383.77
2022-11-07T11:37:01.675Z,99382.84
2022-11-07T11:38:10.665Z,99378.89
2022-11-07T11:39:03.650Z,99383.86
2022-11-07T11:40:08.436Z,99382.95
2022-11-07T11:41:13.054Z,99383.09
2022-11-07T11:42:18.052Z,99380.59
2022-11-07T11:43:22.572Z,99379.92
2022-11-07T11:44:23.118Z,99378.89
2022-11-07T11:47:29.191Z,99377.93
2022-11-07T11:48:25.548Z,99372.48
2022-11-07T11:50:36.555Z,99376.55
2022-11-07T11:52:37.906Z,99368.03
2022-11-07T11:53:37.651Z,99361.79
2022-11-07T11:54:37.680Z,99369.64
2022-11-07T11:55:41.751Z,99366.82
2022-11-07T11:56:51.486Z,99362.86
2022-11-07T12:06:13.854Z,99373.75
2022-11-07T12:19:41.467Z,99378.75
2022-11-07T12:20:47.504Z,99375.98
2022-11-07T12:21:50.926Z,99378.2
2022-11-07T12:43:37.517Z,99333.84
2022-11-07T12:55:50.091Z,99317.34
2022-11-07T12:56:49.371Z,99323.33
2022-11-07T12:57:52.463Z,99327.34
2022-11-07T12:58:51.081Z,99322.34
2022-11-07T12:59:54.643Z,99318.42
2022-11-07T13:00:51.733Z,99321.52
2022-11-07T13:01:58.647Z,99324.64
2022-11-07T13:07:06.761Z,99307.44
2022-11-07T13:13:16.378Z,99304.25
2022-11-07T13:14:23.761Z,99307.84
2022-11-07T13:15:16.303Z,99307.38
2022-11-07T13:16:24.079Z,99306.59
2022-11-07T13:17:21.792Z,99305.7
2022-11-07T13:18:24.489Z,99312.31
2022-11-07T13:19:29.386Z,99308.99
2022-11-07T13:20:28.506Z,99310.9
2022-11-07T13:21:24.722Z,99313.44
2022-11-07T13:22:32.296Z,99307.22
2022-11-07T13:23:29.237Z,99297.84
2022-11-07T13:24:28.883Z,99300.77
2022-11-07T13:25:30.299Z,99299.69
2022-11-07T13:26:46.537Z,99293.73
2022-11-07T13:27:35.678Z,99288.58
2022-11-07T13:28:41.405Z,99285.64
2022-11-07T13:29:38.972Z,99286.96
2022-11-07T13:30:38.999Z,99286.7
2022-11-07T13:31:39.109Z,99285.31
2022-11-07T13:32:41.971Z,99291.34
2022-11-07T13:33:38.649Z,99289.33
2022-11-07T13:34:39.646Z,99285.19
2022-11-07T13:35:38.948Z,99279.47
2022-11-07T13:36:39.244Z,99277.75
2022-11-07T13:37:40.896Z,99279.04